AUA15G LSGG-LOWW
Flight info
| Callsign | AUA15G |
|---|---|
| Flight time | 1h 7m |
| Altitude | 38000 |
| Route | SOSAL N871 KORED DCT BERSU DCT DITON N871 DEGES DCT GAMSA/N0439F370 DCT TULSI DCT INPUL DCT NEMAL NEMAL2W |
| Aircraft | A320/M-SDE3FGHIRWY/LB1 |
Departure
| Time | 2026-05-07 15:05 |
|---|---|
| Airport | Geneva International Airport (LSGG) |
Arrival
| Time | 2026-05-07 16:12 |
|---|---|
| Airport | Vienna International Airport (LOWW) |
| Time | Latitude | Longitude | Altitude | Speed | Heading |
|---|---|---|---|---|---|
| 2026-05-07 14:33 | 46.22978 | 6.10487 | 1390 ft | 0 kts | 139° |
| 2026-05-07 14:45 | 46.22981 | 6.10483 | 1390 ft | 0 kts | 139° |
| 2026-05-07 14:56 | 46.22982 | 6.10482 | 1390 ft | 0 kts | 139° |
| 2026-05-07 14:56 | 46.22987 | 6.10476 | 1390 ft | 2 kts | 139° |
| 2026-05-07 14:57 | 46.22996 | 6.10464 | 1390 ft | 0 kts | 139° |
| 2026-05-07 14:57 | 46.23004 | 6.10450 | 1390 ft | 2 kts | 107° |
| 2026-05-07 14:57 | 46.23005 | 6.10428 | 1390 ft | 2 kts | 72° |
| 2026-05-07 14:57 | 46.23001 | 6.10415 | 1390 ft | 0 kts | 48° |
| 2026-05-07 14:58 | 46.22995 | 6.10408 | 1390 ft | 0 kts | 44° |
| 2026-05-07 15:00 | 46.23009 | 6.10428 | 1389 ft | 6 kts | 44° |
| 2026-05-07 15:01 | 46.23063 | 6.10471 | 1388 ft | 10 kts | 343° |
| 2026-05-07 15:01 | 46.23131 | 6.10389 | 1385 ft | 14 kts | 316° |
| 2026-05-07 15:01 | 46.23146 | 6.10264 | 1385 ft | 14 kts | 232° |
| 2026-05-07 15:01 | 46.23081 | 6.10163 | 1388 ft | 14 kts | 226° |
| 2026-05-07 15:02 | 46.23012 | 6.10062 | 1390 ft | 15 kts | 225° |
| 2026-05-07 15:02 | 46.22934 | 6.09948 | 1391 ft | 16 kts | 225° |
| 2026-05-07 15:02 | 46.22854 | 6.09830 | 1393 ft | 16 kts | 225° |
| 2026-05-07 15:02 | 46.22773 | 6.09712 | 1395 ft | 17 kts | 224° |
| 2026-05-07 15:03 | 46.22684 | 6.09583 | 1395 ft | 18 kts | 225° |
| 2026-05-07 15:03 | 46.22595 | 6.09449 | 1398 ft | 18 kts | 226° |
| 2026-05-07 15:03 | 46.22547 | 6.09296 | 1401 ft | 16 kts | 263° |
| 2026-05-07 15:03 | 46.22558 | 6.09154 | 1407 ft | 12 kts | 296° |
| 2026-05-07 15:04 | 46.22629 | 6.09164 | 1406 ft | 13 kts | 47° |
| 2026-05-07 15:04 | 46.22736 | 6.09321 | 1403 ft | 47 kts | 44° |
| 2026-05-07 15:04 | 46.23145 | 6.09923 | 1392 ft | 118 kts | 45° |
| 2026-05-07 15:04 | 46.23852 | 6.10955 | 1451 ft | 165 kts | 44° |
| 2026-05-07 15:05 | 46.24663 | 6.12152 | 2066 ft | 167 kts | 45° |
| 2026-05-07 15:05 | 46.25458 | 6.13342 | 2751 ft | 169 kts | 44° |
| 2026-05-07 15:05 | 46.26278 | 6.14540 | 3442 ft | 172 kts | 43° |
| 2026-05-07 15:05 | 46.27150 | 6.15818 | 3933 ft | 188 kts | 43° |
| 2026-05-07 15:06 | 46.28110 | 6.17226 | 4426 ft | 205 kts | 43° |
| 2026-05-07 15:06 | 46.29155 | 6.18761 | 4917 ft | 222 kts | 43° |
| 2026-05-07 15:06 | 46.30295 | 6.20428 | 5325 ft | 246 kts | 43° |
| 2026-05-07 15:06 | 46.31538 | 6.22250 | 5879 ft | 264 kts | 43° |
| 2026-05-07 15:07 | 46.32852 | 6.24178 | 6514 ft | 279 kts | 43° |
| 2026-05-07 15:07 | 46.34260 | 6.26248 | 7035 ft | 297 kts | 43° |
| 2026-05-07 15:07 | 46.35709 | 6.28422 | 7818 ft | 305 kts | 47° |
| 2026-05-07 15:07 | 46.36883 | 6.30966 | 8679 ft | 312 kts | 61° |
| 2026-05-07 15:08 | 46.37678 | 6.33975 | 9501 ft | 320 kts | 70° |
| 2026-05-07 15:08 | 46.38300 | 6.37050 | 10263 ft | 326 kts | 72° |
| 2026-05-07 15:08 | 46.38911 | 6.40230 | 11026 ft | 332 kts | 72° |
| 2026-05-07 15:08 | 46.39532 | 6.43444 | 11772 ft | 337 kts | 72° |
| 2026-05-07 15:09 | 46.40179 | 6.46744 | 12508 ft | 342 kts | 72° |
| 2026-05-07 15:09 | 46.40833 | 6.50056 | 13294 ft | 344 kts | 72° |
| 2026-05-07 15:09 | 46.41489 | 6.53361 | 14111 ft | 345 kts | 71° |
| 2026-05-07 15:09 | 46.42152 | 6.56694 | 14821 ft | 348 kts | 71° |
| 2026-05-07 15:10 | 46.42825 | 6.60073 | 15493 ft | 353 kts | 71° |
| 2026-05-07 15:10 | 46.43502 | 6.63474 | 16152 ft | 356 kts | 71° |
| 2026-05-07 15:10 | 46.44326 | 6.66860 | 16864 ft | 356 kts | 63° |
| 2026-05-07 15:10 | 46.45522 | 6.69971 | 17617 ft | 352 kts | 52° |
| 2026-05-07 15:11 | 46.46996 | 6.72786 | 18251 ft | 353 kts | 47° |
| 2026-05-07 15:11 | 46.48546 | 6.75514 | 18830 ft | 356 kts | 46° |
| 2026-05-07 15:11 | 46.50021 | 6.78091 | 19365 ft | 360 kts | 46° |
| 2026-05-07 15:11 | 46.51486 | 6.80678 | 19892 ft | 363 kts | 47° |
| 2026-05-07 15:12 | 46.53091 | 6.83542 | 20459 ft | 367 kts | 47° |
| 2026-05-07 15:12 | 46.54690 | 6.86415 | 21010 ft | 370 kts | 47° |
| 2026-05-07 15:12 | 46.56308 | 6.89327 | 21553 ft | 373 kts | 47° |
| 2026-05-07 15:12 | 46.57933 | 6.92241 | 22082 ft | 376 kts | 47° |
| 2026-05-07 15:13 | 46.59579 | 6.95193 | 22600 ft | 379 kts | 47° |
| 2026-05-07 15:13 | 46.61256 | 6.98206 | 23115 ft | 382 kts | 47° |
| 2026-05-07 15:13 | 46.62923 | 7.01205 | 23627 ft | 385 kts | 47° |
| 2026-05-07 15:13 | 46.64603 | 7.04236 | 24138 ft | 387 kts | 47° |
| 2026-05-07 15:14 | 46.66275 | 7.07254 | 24632 ft | 389 kts | 47° |
| 2026-05-07 15:14 | 46.67977 | 7.10331 | 25120 ft | 391 kts | 46° |
| 2026-05-07 15:14 | 46.69684 | 7.13420 | 25597 ft | 393 kts | 46° |
| 2026-05-07 15:14 | 46.71396 | 7.16524 | 26060 ft | 395 kts | 46° |
| 2026-05-07 15:15 | 46.73120 | 7.19653 | 26514 ft | 397 kts | 46° |
| 2026-05-07 15:15 | 46.74849 | 7.22795 | 26951 ft | 400 kts | 46° |
| 2026-05-07 15:15 | 46.76587 | 7.25954 | 27359 ft | 402 kts | 46° |
| 2026-05-07 15:15 | 46.78330 | 7.29124 | 27754 ft | 405 kts | 46° |
| 2026-05-07 15:16 | 46.80095 | 7.32338 | 28141 ft | 408 kts | 46° |
| 2026-05-07 15:16 | 46.81853 | 7.35545 | 28511 ft | 410 kts | 46° |
| 2026-05-07 15:16 | 46.83644 | 7.38817 | 28883 ft | 413 kts | 46° |
| 2026-05-07 15:16 | 46.85422 | 7.42069 | 29244 ft | 415 kts | 46° |
| 2026-05-07 15:17 | 46.87231 | 7.45379 | 29595 ft | 418 kts | 46° |
| 2026-05-07 15:17 | 46.89032 | 7.48679 | 29936 ft | 420 kts | 46° |
| 2026-05-07 15:17 | 46.90872 | 7.52063 | 30243 ft | 424 kts | 45° |
| 2026-05-07 15:17 | 46.92692 | 7.55416 | 30521 ft | 427 kts | 45° |
| 2026-05-07 15:18 | 46.94541 | 7.58825 | 30787 ft | 431 kts | 45° |
| 2026-05-07 15:18 | 46.96408 | 7.62271 | 31054 ft | 435 kts | 44° |
| 2026-05-07 15:18 | 46.98300 | 7.65766 | 31311 ft | 438 kts | 45° |
| 2026-05-07 15:18 | 47.00195 | 7.69268 | 31518 ft | 443 kts | 44° |
| 2026-05-07 15:19 | 47.02115 | 7.72823 | 31714 ft | 447 kts | 44° |
| 2026-05-07 15:19 | 47.04041 | 7.76396 | 31933 ft | 451 kts | 44° |
| 2026-05-07 15:19 | 47.05981 | 7.79999 | 32164 ft | 454 kts | 44° |
| 2026-05-07 15:19 | 47.07943 | 7.83648 | 32425 ft | 456 kts | 44° |
| 2026-05-07 15:20 | 47.10559 | 7.88523 | 32788 ft | 458 kts | 44° |
| 2026-05-07 15:20 | 47.11871 | 7.90970 | 32988 ft | 459 kts | 44° |
| 2026-05-07 15:20 | 47.13757 | 7.94706 | 33337 ft | 462 kts | 47° |
| 2026-05-07 15:20 | 47.15402 | 7.98348 | 33621 ft | 464 kts | 50° |
| 2026-05-07 15:21 | 47.17106 | 8.02323 | 33882 ft | 466 kts | 50° |
| 2026-05-07 15:21 | 47.18824 | 8.06389 | 34130 ft | 468 kts | 50° |
| 2026-05-07 15:21 | 47.20528 | 8.10427 | 34366 ft | 469 kts | 50° |
| 2026-05-07 15:21 | 47.22268 | 8.14537 | 34596 ft | 471 kts | 50° |
| 2026-05-07 15:22 | 47.24002 | 8.18627 | 34817 ft | 472 kts | 50° |
| 2026-05-07 15:22 | 47.25709 | 8.22683 | 35030 ft | 475 kts | 51° |
| 2026-05-07 15:22 | 47.27325 | 8.26934 | 35234 ft | 480 kts | 55° |
| 2026-05-07 15:22 | 47.28773 | 8.31393 | 35441 ft | 485 kts | 59° |
| 2026-05-07 15:23 | 47.30029 | 8.36048 | 35703 ft | 488 kts | 64° |
| 2026-05-07 15:23 | 47.31057 | 8.40770 | 35971 ft | 491 kts | 68° |
| 2026-05-07 15:23 | 47.31876 | 8.45642 | 36221 ft | 493 kts | 72° |
| 2026-05-07 15:23 | 47.32536 | 8.50580 | 36435 ft | 494 kts | 74° |
| 2026-05-07 15:24 | 47.33156 | 8.55560 | 36627 ft | 495 kts | 74° |
| 2026-05-07 15:24 | 47.33780 | 8.60594 | 36796 ft | 496 kts | 74° |
| 2026-05-07 15:24 | 47.34398 | 8.65537 | 36953 ft | 497 kts | 75° |
| 2026-05-07 15:24 | 47.35037 | 8.70587 | 37082 ft | 498 kts | 75° |
| 2026-05-07 15:25 | 47.35668 | 8.75560 | 37207 ft | 499 kts | 75° |
| 2026-05-07 15:25 | 47.36303 | 8.80568 | 37339 ft | 500 kts | 75° |
| 2026-05-07 15:25 | 47.36945 | 8.85632 | 37468 ft | 501 kts | 75° |
| 2026-05-07 15:25 | 47.37577 | 8.90651 | 37594 ft | 502 kts | 74° |
| 2026-05-07 15:26 | 47.38207 | 8.95694 | 37731 ft | 502 kts | 74° |
| 2026-05-07 15:26 | 47.38838 | 9.00773 | 37883 ft | 501 kts | 73° |
| 2026-05-07 15:26 | 47.39468 | 9.05843 | 38005 ft | 501 kts | 73° |
| 2026-05-07 15:26 | 47.40086 | 9.10821 | 38011 ft | 500 kts | 72° |
| 2026-05-07 15:27 | 47.41061 | 9.21042 | 38014 ft | 504 kts | 79° |
| 2026-05-07 15:27 | 47.41228 | 9.31396 | 38015 ft | 509 kts | 85° |
| 2026-05-07 15:28 | 47.41096 | 9.41788 | 38015 ft | 509 kts | 85° |
| 2026-05-07 15:28 | 47.40976 | 9.52227 | 38015 ft | 508 kts | 85° |
| 2026-05-07 15:29 | 47.41051 | 9.62585 | 38014 ft | 505 kts | 79° |
| 2026-05-07 15:29 | 47.41870 | 9.72439 | 38013 ft | 498 kts | 72° |
| 2026-05-07 15:30 | 47.43305 | 9.82397 | 38015 ft | 496 kts | 70° |
| 2026-05-07 15:30 | 47.44783 | 9.92308 | 38015 ft | 496 kts | 70° |
| 2026-05-07 15:31 | 47.46231 | 10.02227 | 38015 ft | 497 kts | 71° |
| 2026-05-07 15:31 | 47.47669 | 10.12228 | 38015 ft | 496 kts | 71° |
| 2026-05-07 15:32 | 47.49083 | 10.22156 | 38015 ft | 497 kts | 71° |
| 2026-05-07 15:32 | 47.50493 | 10.32122 | 38015 ft | 496 kts | 71° |
| 2026-05-07 15:33 | 47.51895 | 10.42099 | 38015 ft | 496 kts | 71° |
| 2026-05-07 15:33 | 47.53291 | 10.52081 | 38016 ft | 501 kts | 71° |
| 2026-05-07 15:34 | 47.54697 | 10.62207 | 38017 ft | 507 kts | 71° |
| 2026-05-07 15:34 | 47.56116 | 10.72503 | 38014 ft | 512 kts | 72° |
| 2026-05-07 15:35 | 47.57521 | 10.82796 | 38016 ft | 514 kts | 72° |
| 2026-05-07 15:35 | 47.58917 | 10.93158 | 38017 ft | 512 kts | 71° |
| 2026-05-07 15:36 | 47.60297 | 11.03452 | 38016 ft | 508 kts | 70° |
| 2026-05-07 15:36 | 47.61663 | 11.13629 | 38014 ft | 506 kts | 70° |
| 2026-05-07 15:37 | 47.63018 | 11.23788 | 38010 ft | 505 kts | 70° |
| 2026-05-07 15:37 | 47.64367 | 11.33994 | 38004 ft | 505 kts | 70° |
| 2026-05-07 15:38 | 47.65703 | 11.44181 | 37995 ft | 505 kts | 70° |
| 2026-05-07 15:38 | 47.67033 | 11.54417 | 37981 ft | 505 kts | 70° |
| 2026-05-07 15:39 | 47.68342 | 11.64576 | 37968 ft | 505 kts | 70° |
| 2026-05-07 15:39 | 47.69655 | 11.74846 | 37964 ft | 506 kts | 71° |
| 2026-05-07 15:40 | 47.71040 | 11.85055 | 37969 ft | 504 kts | 69° |
| 2026-05-07 15:40 | 47.72569 | 11.95114 | 37983 ft | 503 kts | 68° |
| 2026-05-07 15:41 | 47.74093 | 12.05247 | 38000 ft | 503 kts | 68° |
| 2026-05-07 15:41 | 47.75585 | 12.15344 | 38010 ft | 503 kts | 69° |
| 2026-05-07 15:42 | 47.77068 | 12.25494 | 38013 ft | 503 kts | 69° |
| 2026-05-07 15:42 | 47.78539 | 12.35639 | 38015 ft | 503 kts | 69° |
| 2026-05-07 15:43 | 47.80000 | 12.45779 | 38014 ft | 503 kts | 69° |
| 2026-05-07 15:43 | 47.81454 | 12.55949 | 38015 ft | 503 kts | 69° |
| 2026-05-07 15:44 | 47.82895 | 12.66104 | 38012 ft | 503 kts | 69° |
| 2026-05-07 15:44 | 47.84270 | 12.76310 | 38014 ft | 507 kts | 72° |
| 2026-05-07 15:45 | 47.85384 | 12.86683 | 38015 ft | 508 kts | 72° |
| 2026-05-07 15:45 | 47.86453 | 12.97025 | 38015 ft | 508 kts | 72° |
| 2026-05-07 15:46 | 47.88039 | 13.12529 | 38017 ft | 503 kts | 71° |
| 2026-05-07 15:47 | 47.89700 | 13.22346 | 38016 ft | 476 kts | 57° |
| 2026-05-07 15:47 | 47.92368 | 13.31259 | 38015 ft | 470 kts | 53° |
| 2026-05-07 15:48 | 47.95122 | 13.40044 | 38014 ft | 470 kts | 53° |
| 2026-05-07 15:48 | 47.97889 | 13.48861 | 38013 ft | 469 kts | 53° |
| 2026-05-07 15:49 | 48.00635 | 13.57624 | 38011 ft | 469 kts | 53° |
| 2026-05-07 15:49 | 48.03391 | 13.66433 | 38000 ft | 469 kts | 54° |
| 2026-05-07 15:50 | 48.06156 | 13.75284 | 37995 ft | 470 kts | 54° |
| 2026-05-07 15:50 | 48.08913 | 13.84114 | 37919 ft | 471 kts | 54° |
| 2026-05-07 15:50 | 48.10286 | 13.88507 | 37395 ft | 471 kts | 54° |
| 2026-05-07 15:51 | 48.11666 | 13.92937 | 36846 ft | 470 kts | 54° |
| 2026-05-07 15:51 | 48.13055 | 13.97394 | 36291 ft | 470 kts | 54° |
| 2026-05-07 15:51 | 48.14413 | 14.01756 | 35750 ft | 470 kts | 53° |
| 2026-05-07 15:51 | 48.15794 | 14.06205 | 35195 ft | 472 kts | 54° |
| 2026-05-07 15:52 | 48.16964 | 14.10849 | 34637 ft | 484 kts | 61° |
| 2026-05-07 15:52 | 48.17930 | 14.15708 | 34354 ft | 486 kts | 63° |
| 2026-05-07 15:52 | 48.18825 | 14.20526 | 34666 ft | 484 kts | 64° |
| 2026-05-07 15:53 | 48.20609 | 14.30258 | 34669 ft | 488 kts | 64° |
| 2026-05-07 15:53 | 48.21507 | 14.35163 | 34093 ft | 487 kts | 64° |
| 2026-05-07 15:53 | 48.22402 | 14.40069 | 33435 ft | 484 kts | 64° |
| 2026-05-07 15:53 | 48.23283 | 14.44859 | 32789 ft | 482 kts | 64° |
| 2026-05-07 15:54 | 48.24188 | 14.49720 | 32133 ft | 483 kts | 64° |
| 2026-05-07 15:54 | 48.25105 | 14.54544 | 31484 ft | 485 kts | 64° |
| 2026-05-07 15:54 | 48.26038 | 14.59353 | 30838 ft | 487 kts | 64° |
| 2026-05-07 15:54 | 48.27007 | 14.64255 | 30182 ft | 489 kts | 64° |
| 2026-05-07 15:55 | 48.27998 | 14.69171 | 29523 ft | 492 kts | 64° |
| 2026-05-07 15:55 | 48.28997 | 14.74029 | 28876 ft | 494 kts | 64° |
| 2026-05-07 15:55 | 48.30029 | 14.78947 | 28223 ft | 496 kts | 64° |
| 2026-05-07 15:55 | 48.31043 | 14.83932 | 27562 ft | 502 kts | 68° |
| 2026-05-07 15:56 | 48.31426 | 14.86490 | 27239 ft | 506 kts | 71° |
| 2026-05-07 15:56 | 48.32064 | 14.91741 | 26582 ft | 511 kts | 73° |
| 2026-05-07 15:56 | 48.32652 | 14.96999 | 25887 ft | 514 kts | 74° |
| 2026-05-07 15:56 | 48.33231 | 15.02240 | 25165 ft | 514 kts | 74° |
| 2026-05-07 15:57 | 48.33828 | 15.07585 | 24431 ft | 515 kts | 74° |
| 2026-05-07 15:57 | 48.34430 | 15.12874 | 23705 ft | 516 kts | 74° |
| 2026-05-07 15:57 | 48.35043 | 15.18118 | 22985 ft | 516 kts | 74° |
| 2026-05-07 15:57 | 48.35681 | 15.23391 | 22315 ft | 513 kts | 74° |
| 2026-05-07 15:58 | 48.36331 | 15.28634 | 21689 ft | 501 kts | 74° |
| 2026-05-07 15:58 | 48.36974 | 15.33712 | 20987 ft | 492 kts | 74° |
| 2026-05-07 15:58 | 48.37616 | 15.38653 | 20294 ft | 485 kts | 74° |
| 2026-05-07 15:58 | 48.38274 | 15.43578 | 19592 ft | 477 kts | 74° |
| 2026-05-07 15:59 | 48.38940 | 15.48439 | 18889 ft | 471 kts | 74° |
| 2026-05-07 15:59 | 48.39177 | 15.50145 | 18640 ft | 468 kts | 74° |
| 2026-05-07 15:59 | 48.39814 | 15.54634 | 17978 ft | 463 kts | 74° |
| 2026-05-07 15:59 | 48.40491 | 15.59298 | 17281 ft | 457 kts | 74° |
| 2026-05-07 16:00 | 48.41175 | 15.63894 | 16665 ft | 449 kts | 74° |
| 2026-05-07 16:00 | 48.41871 | 15.68463 | 16084 ft | 441 kts | 75° |
| 2026-05-07 16:00 | 48.42640 | 15.72875 | 15508 ft | 433 kts | 70° |
| 2026-05-07 16:00 | 48.43669 | 15.77052 | 14985 ft | 424 kts | 65° |
| 2026-05-07 16:01 | 48.44807 | 15.81140 | 14483 ft | 419 kts | 65° |
| 2026-05-07 16:01 | 48.45948 | 15.85121 | 13985 ft | 415 kts | 64° |
| 2026-05-07 16:01 | 48.47092 | 15.89055 | 13488 ft | 411 kts | 64° |
| 2026-05-07 16:01 | 48.48235 | 15.92941 | 12991 ft | 407 kts | 64° |
| 2026-05-07 16:02 | 48.49380 | 15.96797 | 12489 ft | 399 kts | 64° |
| 2026-05-07 16:02 | 48.50520 | 16.00598 | 11985 ft | 391 kts | 64° |
| 2026-05-07 16:02 | 48.51623 | 16.04250 | 11488 ft | 383 kts | 64° |
| 2026-05-07 16:02 | 48.52713 | 16.07857 | 10989 ft | 376 kts | 64° |
| 2026-05-07 16:03 | 48.53654 | 16.11536 | 10479 ft | 370 kts | 72° |
| 2026-05-07 16:03 | 48.54347 | 16.15209 | 10031 ft | 363 kts | 74° |
| 2026-05-07 16:03 | 48.54975 | 16.18801 | 9779 ft | 354 kts | 74° |
| 2026-05-07 16:03 | 48.55522 | 16.22451 | 9518 ft | 352 kts | 82° |
| 2026-05-07 16:04 | 48.55624 | 16.26041 | 9264 ft | 341 kts | 94° |
| 2026-05-07 16:04 | 48.55224 | 16.29543 | 9015 ft | 331 kts | 102° |
| 2026-05-07 16:04 | 48.54683 | 16.32869 | 8797 ft | 328 kts | 104° |
| 2026-05-07 16:04 | 48.54113 | 16.36208 | 8595 ft | 327 kts | 105° |
| 2026-05-07 16:05 | 48.53194 | 16.39288 | 8420 ft | 325 kts | 129° |
| 2026-05-07 16:05 | 48.51468 | 16.41381 | 8296 ft | 321 kts | 156° |
| 2026-05-07 16:05 | 48.49342 | 16.42398 | 8182 ft | 318 kts | 168° |
| 2026-05-07 16:05 | 48.47215 | 16.43139 | 8059 ft | 317 kts | 168° |
| 2026-05-07 16:06 | 48.45073 | 16.43916 | 7879 ft | 317 kts | 167° |
| 2026-05-07 16:06 | 48.42979 | 16.44732 | 7327 ft | 306 kts | 166° |
| 2026-05-07 16:06 | 48.40949 | 16.45556 | 6725 ft | 295 kts | 166° |
| 2026-05-07 16:06 | 48.39016 | 16.46354 | 6124 ft | 284 kts | 166° |
| 2026-05-07 16:07 | 48.37168 | 16.47120 | 5531 ft | 276 kts | 166° |
| 2026-05-07 16:07 | 48.35348 | 16.47911 | 5081 ft | 271 kts | 165° |
| 2026-05-07 16:07 | 48.33598 | 16.48687 | 4869 ft | 253 kts | 165° |
| 2026-05-07 16:07 | 48.31960 | 16.49397 | 4592 ft | 241 kts | 165° |
| 2026-05-07 16:08 | 48.30389 | 16.50065 | 4272 ft | 235 kts | 166° |
| 2026-05-07 16:08 | 48.29684 | 16.50361 | 4129 ft | 234 kts | 166° |
| 2026-05-07 16:08 | 48.28134 | 16.51012 | 3827 ft | 226 kts | 166° |
| 2026-05-07 16:08 | 48.26643 | 16.51638 | 3529 ft | 217 kts | 166° |
| 2026-05-07 16:09 | 48.25224 | 16.52234 | 3244 ft | 209 kts | 166° |
| 2026-05-07 16:09 | 48.24241 | 16.52648 | 3048 ft | 204 kts | 166° |
| 2026-05-07 16:09 | 48.22916 | 16.53206 | 2778 ft | 195 kts | 166° |
| 2026-05-07 16:09 | 48.21636 | 16.53746 | 2522 ft | 187 kts | 166° |
| 2026-05-07 16:10 | 48.20395 | 16.54268 | 2286 ft | 185 kts | 166° |
| 2026-05-07 16:10 | 48.19189 | 16.54777 | 2130 ft | 174 kts | 166° |
| 2026-05-07 16:10 | 48.18050 | 16.55259 | 1859 ft | 167 kts | 166° |
| 2026-05-07 16:10 | 48.16980 | 16.55710 | 1636 ft | 156 kts | 166° |
| 2026-05-07 16:11 | 48.15971 | 16.56137 | 1403 ft | 146 kts | 166° |
| 2026-05-07 16:11 | 48.15011 | 16.56539 | 1178 ft | 142 kts | 166° |
| 2026-05-07 16:11 | 48.14061 | 16.56943 | 1026 ft | 142 kts | 166° |
| 2026-05-07 16:11 | 48.13116 | 16.57340 | 848 ft | 141 kts | 166° |
| 2026-05-07 16:12 | 48.12171 | 16.57742 | 657 ft | 140 kts | 166° |
| 2026-05-07 16:12 | 48.11275 | 16.58117 | 593 ft | 121 kts | 163° |
| 2026-05-07 16:12 | 48.10626 | 16.58389 | 599 ft | 72 kts | 163° |
| 2026-05-07 16:12 | 48.10288 | 16.58464 | 600 ft | 36 kts | 191° |
| 2026-05-07 16:13 | 48.10129 | 16.58389 | 601 ft | 16 kts | 224° |
| 2026-05-07 16:13 | 48.10176 | 16.58299 | 603 ft | 15 kts | 351° |
| 2026-05-07 16:13 | 48.10293 | 16.58251 | 604 ft | 19 kts | 342° |
| 2026-05-07 16:13 | 48.10435 | 16.58187 | 603 ft | 23 kts | 342° |
| 2026-05-07 16:14 | 48.10600 | 16.58116 | 601 ft | 25 kts | 342° |
| 2026-05-07 16:14 | 48.10776 | 16.58045 | 599 ft | 27 kts | 346° |
| 2026-05-07 16:14 | 48.10955 | 16.57972 | 597 ft | 27 kts | 343° |
| 2026-05-07 16:14 | 48.11106 | 16.57869 | 596 ft | 21 kts | 300° |
| 2026-05-07 16:15 | 48.11176 | 16.57659 | 596 ft | 23 kts | 296° |
| 2026-05-07 16:15 | 48.11249 | 16.57434 | 600 ft | 24 kts | 295° |
| 2026-05-07 16:15 | 48.11323 | 16.57205 | 605 ft | 23 kts | 296° |
| 2026-05-07 16:15 | 48.11393 | 16.56989 | 606 ft | 23 kts | 295° |
| 2026-05-07 16:16 | 48.11477 | 16.56883 | 606 ft | 16 kts | 15° |
| 2026-05-07 16:16 | 48.11584 | 16.56895 | 606 ft | 16 kts | 315° |
| 2026-05-07 16:16 | 48.11606 | 16.56768 | 605 ft | 11 kts | 217° |
| 2026-05-07 16:16 | 48.11556 | 16.56730 | 604 ft | 0 kts | 205° |